createdAt,value
2023-04-01T00:01:17.885Z,98401.25
2023-04-01T00:03:46.404Z,98411.75
2023-04-01T00:06:15.605Z,98409.03
2023-04-01T00:08:45.841Z,98407.56
2023-04-01T00:11:16.126Z,98389.94
2023-04-01T00:13:46.363Z,98402.78
2023-04-01T00:16:22.391Z,98398.13
2023-04-01T00:18:51.747Z,98382.94
2023-04-01T00:21:20.210Z,98386.88
2023-04-01T00:23:50.811Z,98400.16
2023-04-01T00:26:22.098Z,98400.81
2023-04-01T00:28:52.339Z,98401.34
2023-04-01T00:31:22.268Z,98408.59
2023-04-01T00:33:50.579Z,98407.09
2023-04-01T00:36:20.561Z,98405.63
2023-04-01T00:38:48.749Z,98397.00
2023-04-01T00:41:18.244Z,98384.75
2023-04-01T00:43:47.701Z,98391.28
2023-04-01T00:46:19.232Z,98405.53
2023-04-01T00:48:49.562Z,98406.06
2023-04-01T00:51:20.066Z,98394.28
2023-04-01T00:53:50.338Z,98401.63
2023-04-01T00:56:20.271Z,98397.28
2023-04-01T00:58:50.410Z,98414.63
2023-04-01T01:01:21.187Z,98392.53
2023-04-01T01:03:49.860Z,98409.00
2023-04-01T01:06:26.430Z,98411.03
2023-04-01T01:09:09.687Z,98410.66
2023-04-01T01:11:43.674Z,98415.13
2023-04-01T01:14:21.312Z,98404.75
2023-04-01T01:16:57.998Z,98412.13
2023-04-01T01:19:36.972Z,98408.13
2023-04-01T01:22:23.597Z,98413.06
2023-04-01T01:24:58.500Z,98404.31
2023-04-01T01:27:27.719Z,98399.50
2023-04-01T01:30:11.653Z,98409.47
2023-04-01T01:32:57.732Z,98395.53
2023-04-01T01:35:32.538Z,98410.44
2023-04-01T01:38:04.748Z,98402.66
2023-04-01T01:40:35.221Z,98399.91
2023-04-01T01:43:06.628Z,98392.13
2023-04-01T01:45:37.022Z,98385.41
2023-04-01T01:48:07.288Z,98392.16
2023-04-01T01:50:39.943Z,98390.38
2023-04-01T01:53:10.431Z,98395.44
2023-04-01T01:55:39.958Z,98394.19
2023-04-01T01:58:11.523Z,98386.28
2023-04-01T02:00:41.768Z,98387.28
2023-04-01T02:03:10.774Z,98388.22
2023-04-01T02:05:40.608Z,98393.50
2023-04-01T02:08:14.355Z,98405.81
2023-04-01T02:10:45.090Z,98401.41
2023-04-01T02:13:20.019Z,98401.19
2023-04-01T02:15:49.706Z,98397.81
2023-04-01T02:18:20.579Z,98396.56
2023-04-01T02:20:51.427Z,98399.41
2023-04-01T02:23:19.704Z,98396.66
2023-04-01T02:25:47.668Z,98398.59
2023-04-01T02:28:24.213Z,98401.88
2023-04-01T02:30:52.641Z,98386.09
2023-04-01T02:33:21.690Z,98378.34
2023-04-01T02:35:51.356Z,98358.72
2023-04-01T02:38:19.211Z,98373.06
2023-04-01T02:40:48.503Z,98374.44
2023-04-01T02:43:17.287Z,98368.97
2023-04-01T02:45:45.642Z,98370.09
2023-04-01T02:48:15.233Z,98369.25
2023-04-01T02:50:43.250Z,98380.19
2023-04-01T02:53:12.990Z,98363.09
2023-04-01T02:55:43.752Z,98347.53
2023-04-01T02:58:12.939Z,98364.63
2023-04-01T03:00:41.372Z,98354.38
2023-04-01T03:03:09.690Z,98366.94
2023-04-01T03:05:38.121Z,98364.75
2023-04-01T03:08:07.678Z,98351.50
2023-04-01T03:10:37.304Z,98365.31
2023-04-01T03:13:05.860Z,98355.47
2023-04-01T03:15:36.263Z,98369.81
2023-04-01T03:18:04.658Z,98367.34
2023-04-01T03:20:35.566Z,98371.84
2023-04-01T03:23:04.149Z,98372.66
2023-04-01T03:25:32.454Z,98368.16
2023-04-01T03:28:03.812Z,98368.84
2023-04-01T03:30:32.407Z,98353.69
2023-04-01T03:33:01.890Z,98360.22
2023-04-01T03:35:32.775Z,98365.13
2023-04-01T03:38:01.653Z,98361.47
2023-04-01T03:40:29.709Z,98345.63
2023-04-01T03:42:57.976Z,98341.13
2023-04-01T03:45:27.973Z,98352.97
2023-04-01T03:47:56.950Z,98360.63
2023-04-01T03:50:24.774Z,98369.78
2023-04-01T03:52:52.865Z,98362.66
2023-04-01T03:55:21.438Z,98365.38
2023-04-01T03:57:50.745Z,98365.94
2023-04-01T04:00:20.570Z,98369.38
2023-04-01T04:02:56.877Z,98361.19
2023-04-01T04:05:30.977Z,98355.59
2023-04-01T04:08:01.979Z,98361.75
2023-04-01T04:10:30.366Z,98353.00
2023-04-01T04:12:58.856Z,98367.34
2023-04-01T04:15:30.871Z,98368.41
2023-04-01T04:18:03.002Z,98364.97
2023-04-01T04:20:31.121Z,98349.69
2023-04-01T04:22:59.706Z,98364.31
2023-04-01T04:25:27.777Z,98371.66
2023-04-01T04:27:56.435Z,98367.56
2023-04-01T04:30:24.328Z,98364.81
2023-04-01T04:32:54.095Z,98372.88
2023-04-01T04:35:23.823Z,98342.28
2023-04-01T04:37:53.077Z,98352.53
2023-04-01T04:40:21.770Z,98367.94
2023-04-01T04:42:50.929Z,98373.56
2023-04-01T04:45:19.231Z,98373.56
2023-04-01T04:47:55.058Z,98377.66
2023-04-01T04:50:25.093Z,98373.41
2023-04-01T04:52:53.560Z,98363.47
2023-04-01T04:55:21.824Z,98367.81
2023-04-01T04:57:57.638Z,98359.75
2023-04-01T05:00:25.821Z,98366.72
2023-04-01T05:02:58.254Z,98368.66
2023-04-01T05:05:27.801Z,98358.00
2023-04-01T05:07:56.983Z,98369.03
2023-04-01T05:10:24.713Z,98362.19
2023-04-01T05:12:54.127Z,98372.72
2023-04-01T05:15:24.341Z,98368.38
2023-04-01T05:17:52.630Z,98364.28
2023-04-01T05:20:21.016Z,98370.41
2023-04-01T05:22:50.203Z,98374.94
2023-04-01T05:25:18.463Z,98367.13
2023-04-01T05:27:46.569Z,98376.78
2023-04-01T05:30:14.980Z,98362.03
2023-04-01T05:33:00.816Z,98360.69
2023-04-01T05:35:29.351Z,98352.22
2023-04-01T05:38:00.837Z,98368.94
2023-04-01T05:40:29.513Z,98359.59
2023-04-01T05:42:59.756Z,98361.78
2023-04-01T05:45:27.884Z,98361.38
2023-04-01T05:48:21.898Z,98367.00
2023-04-01T05:50:51.146Z,98353.38
2023-04-01T05:53:20.975Z,98354.59
2023-04-01T05:55:49.164Z,98353.09
2023-04-01T05:58:17.860Z,98360.72
2023-04-01T06:00:48.430Z,98349.03
2023-04-01T06:03:23.235Z,98358.09
2023-04-01T06:05:51.667Z,98358.09
2023-04-01T06:08:21.015Z,98353.47
2023-04-01T06:10:57.900Z,98356.06
2023-04-01T06:13:32.687Z,98349.94
2023-04-01T06:16:03.574Z,98353.19
2023-04-01T06:18:42.768Z,98348.41
2023-04-01T06:21:22.304Z,98351.53
2023-04-01T06:24:14.254Z,98352.75
2023-04-01T06:26:47.407Z,98364.63
2023-04-01T06:29:28.839Z,98359.41
2023-04-01T06:32:06.654Z,98361.25
2023-04-01T06:34:43.992Z,98362.16
2023-04-01T06:37:18.114Z,98337.84
2023-04-01T06:39:55.927Z,98349.03
2023-04-01T06:42:39.769Z,98359.78
2023-04-01T06:45:26.571Z,98368.81
2023-04-01T06:48:24.276Z,98363.28
2023-04-01T06:54:06.417Z,98350.13
2023-04-01T06:56:58.444Z,98356.72
2023-04-01T06:59:28.946Z,98357.53
2023-04-01T07:02:02.601Z,98349.09
2023-04-01T07:04:32.956Z,98354.13
2023-04-01T07:07:03.671Z,98347.34
2023-04-01T07:09:35.180Z,98354.00
2023-04-01T07:12:27.705Z,98353.47
2023-04-01T07:15:17.552Z,98346.50
2023-04-01T07:17:47.281Z,98357.28
2023-04-01T07:20:18.078Z,98354.81
2023-04-01T07:22:50.597Z,98351.94
2023-04-01T07:25:26.745Z,98361.34
2023-04-01T07:28:17.870Z,98368.47
2023-04-01T07:31:00.610Z,98360.81
2023-04-01T07:33:36.303Z,98363.41
2023-04-01T07:36:08.994Z,98363.88
2023-04-01T07:38:41.930Z,98367.31
2023-04-01T07:41:16.771Z,98362.66
2023-04-01T07:43:52.439Z,98377.75
2023-04-01T07:46:39.925Z,98360.75
2023-04-01T07:49:12.558Z,98367.97
2023-04-01T07:51:46.311Z,98368.94
2023-04-01T07:54:21.703Z,98373.78
2023-04-01T07:56:54.190Z,98386.13
2023-04-01T07:59:34.624Z,98386.69
2023-04-01T08:02:19.122Z,98375.66
2023-04-01T08:04:54.216Z,98391.69
2023-04-01T08:07:25.601Z,98393.25
2023-04-01T08:10:26.989Z,98392.84
2023-04-01T08:13:37.361Z,98395.72
2023-04-01T08:16:49.080Z,98390.94
2023-04-01T08:19:31.016Z,98389.38
2023-04-01T08:22:05.548Z,98404.84
2023-04-01T08:24:46.434Z,98405.75
2023-04-01T08:27:21.562Z,98397.56
2023-04-01T08:29:53.463Z,98402.28
2023-04-01T08:32:27.056Z,98398.19
2023-04-01T08:35:00.213Z,98383.47
2023-04-01T08:37:38.793Z,98394.22
2023-04-01T08:40:18.435Z,98389.59
2023-04-01T08:42:58.295Z,98395.13
2023-04-01T08:45:33.471Z,98382.53
2023-04-01T08:48:21.690Z,98385.78
2023-04-01T08:51:11.135Z,98390.03
2023-04-01T08:53:57.656Z,98380.75
2023-04-01T08:56:28.981Z,98374.59
2023-04-01T08:59:15.620Z,98390.38
2023-04-01T09:02:06.080Z,98387.75
2023-04-01T09:05:20.612Z,98393.13
2023-04-01T09:07:54.137Z,98391.41
2023-04-01T09:10:32.709Z,98398.03
2023-04-01T09:13:20.180Z,98395.94
2023-04-01T09:16:08.605Z,98393.16
2023-04-01T09:18:58.583Z,98390.06
2023-04-01T09:21:47.406Z,98390.94
2023-04-01T09:24:27.861Z,98384.69
2023-04-01T09:27:04.577Z,98400.25
2023-04-01T09:29:46.952Z,98409.34
2023-04-01T09:32:28.369Z,98399.47
2023-04-01T09:35:24.017Z,98402.91
2023-04-01T09:38:03.524Z,98415.38
2023-04-01T09:40:40.520Z,98412.53
2023-04-01T09:43:23.463Z,98403.34
2023-04-01T09:46:00.442Z,98410.38
2023-04-01T09:48:44.050Z,98415.16
2023-04-01T09:51:21.101Z,98412.00
2023-04-01T09:57:03.023Z,98415.44
2023-04-01T10:00:27.962Z,98418.56
2023-04-01T10:03:17.995Z,98415.56
2023-04-01T10:09:28.524Z,98410.84
2023-04-01T10:12:22.597Z,98413.00
2023-04-01T10:15:22.899Z,98416.84
2023-04-01T10:18:05.851Z,98425.13
2023-04-01T10:20:57.914Z,98426.75
2023-04-01T10:24:02.812Z,98419.97
2023-04-01T10:26:47.940Z,98427.97
2023-04-01T10:30:24.119Z,98426.59
2023-04-01T10:33:24.621Z,98425.94
2023-04-01T10:36:37.928Z,98425.88
2023-04-01T10:39:35.484Z,98422.44
2023-04-01T10:42:42.319Z,98424.03
2023-04-01T10:45:54.459Z,98417.47
2023-04-01T10:48:37.350Z,98421.72
2023-04-01T10:54:31.395Z,98414.44
2023-04-01T11:01:01.097Z,98417.19
2023-04-01T11:08:14.890Z,98422.53
2023-04-01T11:11:26.508Z,98427.88
2023-04-01T11:14:16.597Z,98423.41
2023-04-01T11:20:40.801Z,98438.81
2023-04-01T11:26:49.243Z,98437.81
2023-04-01T11:36:51.758Z,98436.72
2023-04-01T11:42:55.200Z,98450.50
2023-04-01T11:46:28.252Z,98449.53
2023-04-01T11:49:22.453Z,98460.19
2023-04-01T11:55:09.002Z,98444.66
2023-04-01T11:57:46.340Z,98456.78
2023-04-01T12:00:24.709Z,98458.91
2023-04-01T12:09:12.606Z,98462.84
2023-04-01T12:11:48.549Z,98467.75
2023-04-01T12:14:30.283Z,98461.69
2023-04-01T12:17:13.895Z,98470.00
2023-04-01T12:22:55.515Z,98470.28
2023-04-01T12:25:42.299Z,98472.03
2023-04-01T12:28:19.171Z,98475.88
2023-04-01T12:30:52.289Z,98473.47
2023-04-01T12:33:33.127Z,98469.88
2023-04-01T12:36:20.500Z,98462.56
2023-04-01T12:39:27.102Z,98472.88
2023-04-01T12:45:26.211Z,98473.41
2023-04-01T12:48:05.939Z,98463.03
2023-04-01T12:51:14.811Z,98458.19
2023-04-01T12:54:06.864Z,98468.38
2023-04-01T13:10:14.441Z,98488.63
2023-04-01T13:12:58.291Z,98493.25
2023-04-01T13:15:57.038Z,98473.84
2023-04-01T13:18:38.010Z,98485.59
2023-04-01T13:24:26.358Z,98488.09
2023-04-01T13:27:07.543Z,98496.13
2023-04-01T13:29:52.664Z,98496.69
2023-04-01T13:32:53.436Z,98505.25
2023-04-01T13:35:51.741Z,98504.91
2023-04-01T13:38:37.367Z,98501.47
2023-04-01T13:44:18.797Z,98510.69
2023-04-01T13:50:01.007Z,98503.31
2023-04-01T13:55:45.560Z,98518.56
2023-04-01T13:58:33.731Z,98523.94
2023-04-01T14:04:41.724Z,98528.78
2023-04-01T14:16:59.389Z,98540.47
2023-04-01T14:32:35.090Z,98574.72
2023-04-01T14:45:28.701Z,98581.69
2023-04-01T14:53:40.462Z,98561.09
2023-04-01T14:59:16.712Z,98572.97
2023-04-01T15:02:02.684Z,98578.78
2023-04-01T15:14:21.856Z,98586.22
2023-04-01T15:20:07.248Z,98592.53
2023-04-01T15:23:15.840Z,98596.06
2023-04-01T15:26:11.203Z,98594.31
2023-04-01T15:28:51.733Z,98592.66
2023-04-01T15:31:46.539Z,98593.72
2023-04-01T15:34:23.363Z,98598.19
2023-04-01T15:37:01.188Z,98594.34
2023-04-01T15:39:44.639Z,98606.50
2023-04-01T15:42:46.110Z,98610.88
2023-04-01T15:45:36.917Z,98602.25
2023-04-01T15:48:44.002Z,98607.75
2023-04-01T15:51:27.103Z,98603.34
2023-04-01T15:54:26.078Z,98609.69
2023-04-01T15:57:08.117Z,98617.88
2023-04-01T16:00:18.181Z,98618.91
2023-04-01T16:02:56.440Z,98623.06
2023-04-01T16:05:31.830Z,98630.22
2023-04-01T16:08:12.470Z,98623.78
2023-04-01T16:11:18.941Z,98634.69
2023-04-01T16:17:08.027Z,98645.53
2023-04-01T16:19:47.884Z,98651.31
2023-04-01T16:22:19.487Z,98653.69
2023-04-01T16:24:54.137Z,98654.25
2023-04-01T16:27:33.952Z,98658.38
2023-04-01T16:30:27.370Z,98655.41
2023-04-01T16:33:12.491Z,98658.56
2023-04-01T16:35:55.968Z,98657.31
2023-04-01T16:38:30.416Z,98664.91
2023-04-01T16:41:12.467Z,98649.88
2023-04-01T16:49:58.857Z,98681.25
2023-04-01T16:52:37.560Z,98687.19
2023-04-01T16:55:16.663Z,98694.34
2023-04-01T16:57:48.642Z,98692.88
2023-04-01T17:00:24.992Z,98702.63
2023-04-01T17:02:59.466Z,98701.22
2023-04-01T17:05:39.216Z,98706.97
2023-04-01T17:08:12.001Z,98715.63
2023-04-01T17:10:45.041Z,98718.53
2023-04-01T17:13:30.707Z,98716.22
2023-04-01T17:16:04.562Z,98716.66
2023-04-01T17:18:39.659Z,98716.31
2023-04-01T17:21:10.678Z,98726.31
2023-04-01T17:23:41.321Z,98712.78
2023-04-01T17:26:18.265Z,98738.22
2023-04-01T17:28:52.911Z,98732.84
2023-04-01T17:31:27.405Z,98732.84
2023-04-01T17:34:22.865Z,98739.53
2023-04-01T17:37:01.940Z,98747.91
2023-04-01T17:39:39.520Z,98744.50
2023-04-01T17:42:09.415Z,98753.91
2023-04-01T17:44:46.176Z,98752.53
2023-04-01T17:47:20.690Z,98764.19
2023-04-01T17:49:55.540Z,98772.09
2023-04-01T17:52:27.424Z,98767.91
2023-04-01T17:54:58.514Z,98776.94
2023-04-01T17:57:32.612Z,98786.22
2023-04-01T18:00:04.627Z,98781.28
2023-04-01T18:02:46.107Z,98792.38
2023-04-01T18:05:23.372Z,98787.88
2023-04-01T18:08:00.958Z,98788.94
2023-04-01T18:10:33.716Z,98794.16
2023-04-01T18:13:16.482Z,98808.13
2023-04-01T18:15:48.233Z,98806.34
2023-04-01T18:18:28.756Z,98808.41
2023-04-01T18:20:59.852Z,98805.66
2023-04-01T18:23:34.075Z,98823.16
2023-04-01T18:26:09.173Z,98824.28
2023-04-01T18:28:38.792Z,98833.28
2023-04-01T18:31:11.095Z,98831.03
2023-04-01T18:33:45.085Z,98841.19
2023-04-01T18:36:20.185Z,98841.19
2023-04-01T18:38:51.279Z,98851.63
2023-04-01T18:41:23.490Z,98853.34
2023-04-01T18:44:01.138Z,98861.88
2023-04-01T18:46:32.792Z,98858.56
2023-04-01T18:49:08.384Z,98870.44
2023-04-01T18:51:42.296Z,98870.22
2023-04-01T18:54:13.954Z,98875.25
2023-04-01T18:56:43.962Z,98878.34
2023-04-01T18:59:14.980Z,98887.41
2023-04-01T19:01:45.402Z,98888.88
2023-04-01T19:04:19.370Z,98892.28
2023-04-01T19:06:50.368Z,98897.75
2023-04-01T19:09:22.157Z,98889.84
2023-04-01T19:12:17.148Z,98903.53
2023-04-01T19:14:53.844Z,98903.91
2023-04-01T19:17:30.162Z,98904.47
2023-04-01T19:20:04.013Z,98908.56
2023-04-01T19:22:50.182Z,98906.66
2023-04-01T19:25:35.959Z,98906.53
2023-04-01T19:28:06.706Z,98920.81
2023-04-01T19:30:41.289Z,98918.78
2023-04-01T19:33:22.435Z,98922.91
2023-04-01T19:35:54.851Z,98932.88
2023-04-01T19:38:27.045Z,98922.22
2023-04-01T19:41:02.746Z,98918.34
2023-04-01T19:43:42.062Z,98924.06
2023-04-01T19:46:14.434Z,98924.75
2023-04-01T19:48:47.363Z,98926.63
2023-04-01T19:51:19.911Z,98934.66
2023-04-01T19:53:49.623Z,98934.47
2023-04-01T19:56:20.389Z,98938.88
2023-04-01T19:58:50.846Z,98940.94
2023-04-01T20:01:25.492Z,98946.09
2023-04-01T20:03:59.852Z,98943.19
2023-04-01T20:06:34.180Z,98952.34
2023-04-01T20:09:11.076Z,98955.31
2023-04-01T20:11:48.452Z,98963.16
2023-04-01T20:14:20.682Z,98965.44
2023-04-01T20:16:53.029Z,98960.63
2023-04-01T20:19:29.377Z,98967.78
2023-04-01T20:22:00.311Z,98977.50
2023-04-01T20:24:33.048Z,98984.00
2023-04-01T20:27:10.446Z,98990.31
2023-04-01T20:29:54.208Z,98994.34
2023-04-01T20:32:31.162Z,99000.66
2023-04-01T20:35:10.380Z,99005.47
2023-04-01T20:37:42.570Z,99003.09
2023-04-01T20:40:26.009Z,99008.47
2023-04-01T20:43:10.224Z,99009.69
2023-04-01T20:45:44.772Z,99009.00
2023-04-01T20:48:24.119Z,99005.84
2023-04-01T20:50:53.308Z,99015.59
2023-04-01T20:53:23.022Z,99017.94
2023-04-01T20:56:13.865Z,99024.06
2023-04-01T20:58:50.420Z,99018.28
2023-04-01T21:01:23.283Z,99024.91
2023-04-01T21:03:59.071Z,99022.00
2023-04-01T21:06:31.820Z,99027.06
2023-04-01T21:09:08.448Z,99022.00
2023-04-01T21:11:43.794Z,99030.63
2023-04-01T21:14:30.995Z,99030.97
2023-04-01T21:17:04.692Z,99034.16
2023-04-01T21:19:43.346Z,99035.69
2023-04-01T21:22:21.968Z,99041.94
2023-04-01T21:25:05.749Z,99048.28
2023-04-01T21:27:41.958Z,99044.13
2023-04-01T21:30:29.422Z,99049.31
2023-04-01T21:33:05.701Z,99055.66
2023-04-01T21:35:38.225Z,99059.69
2023-04-01T21:38:14.614Z,99054.84
2023-04-01T21:41:00.911Z,99061.59
2023-04-01T21:43:46.151Z,99065.13
2023-04-01T21:46:25.344Z,99067.72
2023-04-01T21:49:11.687Z,99072.28
2023-04-01T21:51:56.743Z,99070.25
2023-04-01T21:54:34.421Z,99079.56
2023-04-01T21:57:21.629Z,99074.97
2023-04-01T22:00:12.734Z,99077.44
2023-04-01T22:02:57.558Z,99087.34
2023-04-01T22:05:28.307Z,99088.16
2023-04-01T22:08:02.046Z,99098.25
2023-04-01T22:10:33.243Z,99102.88
2023-04-01T22:13:09.181Z,99103.69
2023-04-01T22:15:58.613Z,99106.16
2023-04-01T22:18:34.722Z,99111.63
2023-04-01T22:21:07.761Z,99106.47
2023-04-01T22:23:41.360Z,99121.16
2023-04-01T22:26:15.374Z,99117.72
2023-04-01T22:28:48.478Z,99119.97
2023-04-01T22:31:18.643Z,99124.81
2023-04-01T22:33:55.424Z,99122.72
2023-04-01T22:36:30.779Z,99129.25
2023-04-01T22:39:07.694Z,99128.72
2023-04-01T22:41:43.738Z,99129.81
2023-04-01T22:44:20.046Z,99132.38
2023-04-01T22:46:54.295Z,99131.69
2023-04-01T22:49:28.941Z,99124.13
2023-04-01T22:52:00.197Z,99130.22
2023-04-01T22:54:31.377Z,99130.53
2023-04-01T22:57:01.773Z,99132.88
2023-04-01T22:59:33.797Z,99137.88
2023-04-01T23:02:03.420Z,99141.09
2023-04-01T23:04:34.459Z,99142.25
2023-04-01T23:07:04.659Z,99146.31
2023-04-01T23:09:33.812Z,99137.31
2023-04-01T23:12:04.843Z,99152.19
2023-04-01T23:14:45.459Z,99154.47
2023-04-01T23:17:19.417Z,99155.13
2023-04-01T23:19:52.438Z,99153.78
2023-04-01T23:22:27.108Z,99154.78
2023-04-01T23:24:58.139Z,99160.81
2023-04-01T23:27:31.711Z,99158.97
2023-04-01T23:29:59.770Z,99167.66
2023-04-01T23:32:28.560Z,99157.97
2023-04-01T23:34:59.272Z,99173.56
2023-04-01T23:37:27.970Z,99177.09
2023-04-01T23:39:56.232Z,99182.69
2023-04-01T23:42:25.689Z,99187.63
2023-04-01T23:44:55.347Z,99186.13
2023-04-01T23:47:27.071Z,99177.34
2023-04-01T23:49:56.803Z,99177.84
2023-04-01T23:52:27.229Z,99179.94
2023-04-01T23:54:56.364Z,99177.22
2023-04-01T23:57:25.544Z,99184.16
